Hespeler, Canada
Current Conditions -  °F | °C
As of 4:00 PM on Monday 22 Dec 2014 (Local Time) from CYKF Reporting Station
Clear Clear  
Wind Chill: 22°   Ceiling: Unl
Heat Index: 30°   Visibility: 9mi
Dew Point: 27°   Wind: 9mph
Humidity: 86%   Direction: 90°E
Pressure: 30.04"   Gusts: NA
Location:  43.43°N, 80.32°W
Report Text: CYKF 222100Z AUTO 09008KT 9SM CLR M01/M03 A3004 RMK SLP185
Loading
Personal Weather Stations






























Interactive Weather Map New forecast layout! Learn more

10-Day Weather Forecast

Advertisements
Track Severe Weather on mobile